Babaevo, Russia
Current Conditions -  °F | °C
As of 10:00 PM on Sunday 23 Nov 2014 (Local Time) from ULWC Reporting Station
Overcast Overcast  
Wind Chill: 27°   Ceiling: 200
Heat Index: 27°   Visibility: 6mi
Dew Point: 25°   Wind: 2mph
Humidity: 93%   Direction: 180°S
Pressure: 30.59"   Gusts: NA
Location:  59.4°N, 35.93°E
Report Text: ULWC 231900Z 18001MPS 9999 OVC002 M03/M04 Q1036 TEMPO 2000 BRRMK QBB080 QFE767/1023 SC057
Loading
Personal Weather Stations






























Interactive Weather Map New forecast layout! Learn more

10-Day Weather Forecast

Advertisements
Track Severe Weather on mobile